sensor_id;sensor_type;location;lat;lon;timestamp;P1;durP1;ratioP1;P2;durP2;ratioP2
13799;SDS011;6971;50.028;9.258;2024-03-22T00:04:06;14.37;;;7.00;;
13799;SDS011;6971;50.028;9.258;2024-03-22T00:09:06;11.70;;;6.93;;
13799;SDS011;6971;50.028;9.258;2024-03-22T00:14:07;10.27;;;6.40;;
13799;SDS011;6971;50.028;9.258;2024-03-22T00:19:08;16.40;;;6.93;;
13799;SDS011;6971;50.028;9.258;2024-03-22T00:24:09;14.07;;;7.00;;
13799;SDS011;6971;50.028;9.258;2024-03-22T00:29:09;13.47;;;7.30;;
13799;SDS011;6971;50.028;9.258;2024-03-22T00:34:09;16.70;;;7.07;;
13799;SDS011;6971;50.028;9.258;2024-03-22T00:39:10;12.83;;;7.07;;
13799;SDS011;6971;50.028;9.258;2024-03-22T00:44:10;11.43;;;6.27;;
13799;SDS011;6971;50.028;9.258;2024-03-22T00:49:10;21.90;;;7.97;;
13799;SDS011;6971;50.028;9.258;2024-03-22T00:54:11;10.73;;;6.40;;
13799;SDS011;6971;50.028;9.258;2024-03-22T00:59:11;14.67;;;7.47;;
13799;SDS011;6971;50.028;9.258;2024-03-22T01:04:11;13.57;;;6.67;;
13799;SDS011;6971;50.028;9.258;2024-03-22T01:09:12;12.90;;;7.70;;
13799;SDS011;6971;50.028;9.258;2024-03-22T01:14:12;14.77;;;7.33;;
13799;SDS011;6971;50.028;9.258;2024-03-22T01:19:12;13.73;;;6.17;;
13799;SDS011;6971;50.028;9.258;2024-03-22T01:24:13;13.90;;;7.27;;
13799;SDS011;6971;50.028;9.258;2024-03-22T01:29:13;14.20;;;6.93;;
13799;SDS011;6971;50.028;9.258;2024-03-22T01:34:14;14.53;;;6.73;;
13799;SDS011;6971;50.028;9.258;2024-03-22T01:39:14;13.93;;;7.03;;
13799;SDS011;6971;50.028;9.258;2024-03-22T01:44:16;15.93;;;7.50;;
13799;SDS011;6971;50.028;9.258;2024-03-22T01:49:17;14.60;;;6.83;;
13799;SDS011;6971;50.028;9.258;2024-03-22T01:54:17;13.40;;;6.57;;
13799;SDS011;6971;50.028;9.258;2024-03-22T01:59:19;15.40;;;7.90;;
13799;SDS011;6971;50.028;9.258;2024-03-22T02:04:20;17.90;;;8.17;;
13799;SDS011;6971;50.028;9.258;2024-03-22T02:09:21;17.73;;;7.43;;
13799;SDS011;6971;50.028;9.258;2024-03-22T02:14:21;15.30;;;7.70;;
13799;SDS011;6971;50.028;9.258;2024-03-22T02:19:22;14.27;;;7.73;;
13799;SDS011;6971;50.028;9.258;2024-03-22T02:24:22;16.13;;;6.90;;
13799;SDS011;6971;50.028;9.258;2024-03-22T02:29:22;16.30;;;7.07;;
13799;SDS011;6971;50.028;9.258;2024-03-22T02:34:23;15.67;;;7.73;;
13799;SDS011;6971;50.028;9.258;2024-03-22T02:39:23;18.90;;;7.83;;
13799;SDS011;6971;50.028;9.258;2024-03-22T02:44:25;17.53;;;7.70;;
13799;SDS011;6971;50.028;9.258;2024-03-22T02:49:25;18.60;;;8.67;;
13799;SDS011;6971;50.028;9.258;2024-03-22T02:54:26;16.97;;;7.80;;
13799;SDS011;6971;50.028;9.258;2024-03-22T02:59:26;17.57;;;8.23;;
13799;SDS011;6971;50.028;9.258;2024-03-22T03:04:27;17.07;;;8.27;;
13799;SDS011;6971;50.028;9.258;2024-03-22T03:09:27;15.47;;;8.03;;
13799;SDS011;6971;50.028;9.258;2024-03-22T03:14:27;16.53;;;8.07;;
13799;SDS011;6971;50.028;9.258;2024-03-22T03:19:28;20.37;;;8.97;;
13799;SDS011;6971;50.028;9.258;2024-03-22T03:24:28;12.40;;;6.97;;
13799;SDS011;6971;50.028;9.258;2024-03-22T03:29:28;17.33;;;7.97;;
13799;SDS011;6971;50.028;9.258;2024-03-22T03:34:29;15.70;;;7.67;;
13799;SDS011;6971;50.028;9.258;2024-03-22T03:39:29;16.03;;;7.97;;
13799;SDS011;6971;50.028;9.258;2024-03-22T03:44:29;16.90;;;7.77;;
13799;SDS011;6971;50.028;9.258;2024-03-22T03:49:30;14.20;;;7.87;;
13799;SDS011;6971;50.028;9.258;2024-03-22T03:54:30;16.83;;;7.50;;
13799;SDS011;6971;50.028;9.258;2024-03-22T03:59:30;17.43;;;6.70;;
13799;SDS011;6971;50.028;9.258;2024-03-22T04:04:31;19.10;;;7.70;;
13799;SDS011;6971;50.028;9.258;2024-03-22T04:09:31;22.27;;;8.50;;
13799;SDS011;6971;50.028;9.258;2024-03-22T04:14:33;16.00;;;8.97;;
13799;SDS011;6971;50.028;9.258;2024-03-22T04:19:33;15.47;;;7.67;;
13799;SDS011;6971;50.028;9.258;2024-03-22T04:24:34;15.43;;;8.13;;
13799;SDS011;6971;50.028;9.258;2024-03-22T04:29:34;14.47;;;7.17;;
13799;SDS011;6971;50.028;9.258;2024-03-22T04:34:34;21.03;;;7.70;;
13799;SDS011;6971;50.028;9.258;2024-03-22T04:39:35;19.73;;;8.43;;
13799;SDS011;6971;50.028;9.258;2024-03-22T04:44:36;19.87;;;8.00;;
13799;SDS011;6971;50.028;9.258;2024-03-22T04:49:36;17.47;;;7.53;;
13799;SDS011;6971;50.028;9.258;2024-03-22T04:54:37;14.87;;;8.23;;
13799;SDS011;6971;50.028;9.258;2024-03-22T04:59:38;14.83;;;8.10;;
13799;SDS011;6971;50.028;9.258;2024-03-22T05:04:38;13.00;;;7.23;;
13799;SDS011;6971;50.028;9.258;2024-03-22T05:09:38;16.23;;;8.23;;
13799;SDS011;6971;50.028;9.258;2024-03-22T05:14:39;21.87;;;7.63;;
13799;SDS011;6971;50.028;9.258;2024-03-22T05:19:39;16.70;;;7.07;;
13799;SDS011;6971;50.028;9.258;2024-03-22T05:24:39;19.63;;;7.80;;
13799;SDS011;6971;50.028;9.258;2024-03-22T05:29:40;21.00;;;8.03;;
13799;SDS011;6971;50.028;9.258;2024-03-22T05:34:40;17.57;;;7.97;;
13799;SDS011;6971;50.028;9.258;2024-03-22T05:39:40;17.60;;;7.53;;
13799;SDS011;6971;50.028;9.258;2024-03-22T05:44:41;26.97;;;10.20;;
13799;SDS011;6971;50.028;9.258;2024-03-22T05:49:42;17.43;;;6.83;;
13799;SDS011;6971;50.028;9.258;2024-03-22T05:54:43;18.43;;;7.87;;
13799;SDS011;6971;50.028;9.258;2024-03-22T05:59:44;24.03;;;9.37;;
13799;SDS011;6971;50.028;9.258;2024-03-22T06:04:44;16.60;;;8.23;;
13799;SDS011;6971;50.028;9.258;2024-03-22T06:09:45;20.43;;;8.63;;
13799;SDS011;6971;50.028;9.258;2024-03-22T06:14:46;20.20;;;8.27;;
13799;SDS011;6971;50.028;9.258;2024-03-22T06:19:48;20.27;;;8.13;;
13799;SDS011;6971;50.028;9.258;2024-03-22T06:24:48;17.70;;;7.80;;
13799;SDS011;6971;50.028;9.258;2024-03-22T06:29:49;22.53;;;11.30;;
13799;SDS011;6971;50.028;9.258;2024-03-22T06:34:49;23.80;;;10.53;;
13799;SDS011;6971;50.028;9.258;2024-03-22T06:39:50;30.90;;;17.87;;
13799;SDS011;6971;50.028;9.258;2024-03-22T06:44:50;19.77;;;10.27;;
13799;SDS011;6971;50.028;9.258;2024-03-22T06:49:50;31.23;;;13.90;;
13799;SDS011;6971;50.028;9.258;2024-03-22T06:54:51;17.90;;;8.07;;
13799;SDS011;6971;50.028;9.258;2024-03-22T06:59:53;17.87;;;9.03;;
13799;SDS011;6971;50.028;9.258;2024-03-22T07:04:53;16.87;;;8.60;;
13799;SDS011;6971;50.028;9.258;2024-03-22T07:09:54;19.50;;;8.83;;
13799;SDS011;6971;50.028;9.258;2024-03-22T07:14:55;23.93;;;12.93;;
13799;SDS011;6971;50.028;9.258;2024-03-22T07:19:56;21.73;;;11.23;;
13799;SDS011;6971;50.028;9.258;2024-03-22T07:24:57;24.77;;;11.07;;
13799;SDS011;6971;50.028;9.258;2024-03-22T07:29:57;23.43;;;11.40;;
13799;SDS011;6971;50.028;9.258;2024-03-22T07:34:57;22.30;;;9.60;;
13799;SDS011;6971;50.028;9.258;2024-03-22T07:39:58;26.57;;;12.33;;
13799;SDS011;6971;50.028;9.258;2024-03-22T07:44:58;20.23;;;11.57;;
13799;SDS011;6971;50.028;9.258;2024-03-22T07:49:59;23.57;;;10.80;;
13799;SDS011;6971;50.028;9.258;2024-03-22T07:54:59;17.03;;;8.77;;
13799;SDS011;6971;50.028;9.258;2024-03-22T08:00:02;16.00;;;9.47;;
13799;SDS011;6971;50.028;9.258;2024-03-22T08:05:02;15.87;;;8.90;;
13799;SDS011;6971;50.028;9.258;2024-03-22T08:10:04;15.03;;;8.67;;
13799;SDS011;6971;50.028;9.258;2024-03-22T08:15:04;16.70;;;9.37;;
13799;SDS011;6971;50.028;9.258;2024-03-22T08:20:07;15.27;;;9.03;;
13799;SDS011;6971;50.028;9.258;2024-03-22T08:25:07;16.73;;;8.63;;
13799;SDS011;6971;50.028;9.258;2024-03-22T08:30:08;14.57;;;8.33;;
13799;SDS011;6971;50.028;9.258;2024-03-22T08:35:09;18.10;;;8.93;;
13799;SDS011;6971;50.028;9.258;2024-03-22T08:40:10;14.77;;;7.53;;
13799;SDS011;6971;50.028;9.258;2024-03-22T08:45:11;16.60;;;9.27;;
13799;SDS011;6971;50.028;9.258;2024-03-22T08:50:11;14.83;;;8.43;;
13799;SDS011;6971;50.028;9.258;2024-03-22T08:55:12;17.37;;;8.60;;
13799;SDS011;6971;50.028;9.258;2024-03-22T09:00:13;11.70;;;7.93;;
13799;SDS011;6971;50.028;9.258;2024-03-22T09:05:13;14.20;;;7.30;;
13799;SDS011;6971;50.028;9.258;2024-03-22T09:10:14;12.00;;;7.30;;
13799;SDS011;6971;50.028;9.258;2024-03-22T09:15:14;14.73;;;7.43;;
13799;SDS011;6971;50.028;9.258;2024-03-22T09:20:14;14.03;;;7.83;;
13799;SDS011;6971;50.028;9.258;2024-03-22T09:25:15;14.43;;;8.50;;
13799;SDS011;6971;50.028;9.258;2024-03-22T09:30:15;11.30;;;7.03;;
13799;SDS011;6971;50.028;9.258;2024-03-22T09:35:16;14.83;;;8.33;;
13799;SDS011;6971;50.028;9.258;2024-03-22T09:40:17;13.27;;;7.30;;
13799;SDS011;6971;50.028;9.258;2024-03-22T09:45:18;12.73;;;7.53;;
13799;SDS011;6971;50.028;9.258;2024-03-22T09:50:20;12.77;;;7.63;;
13799;SDS011;6971;50.028;9.258;2024-03-22T09:55:24;11.00;;;6.57;;
13799;SDS011;6971;50.028;9.258;2024-03-22T10:00:24;9.80;;;6.47;;
13799;SDS011;6971;50.028;9.258;2024-03-22T10:05:26;8.83;;;5.50;;
13799;SDS011;6971;50.028;9.258;2024-03-22T10:10:26;11.80;;;6.40;;
13799;SDS011;6971;50.028;9.258;2024-03-22T10:15:27;7.83;;;5.17;;
13799;SDS011;6971;50.028;9.258;2024-03-22T10:20:27;5.73;;;4.33;;
13799;SDS011;6971;50.028;9.258;2024-03-22T10:25:28;7.87;;;4.67;;
13799;SDS011;6971;50.028;9.258;2024-03-22T10:30:29;6.30;;;4.20;;
13799;SDS011;6971;50.028;9.258;2024-03-22T10:35:31;7.40;;;4.03;;
13799;SDS011;6971;50.028;9.258;2024-03-22T10:40:32;6.53;;;4.20;;
13799;SDS011;6971;50.028;9.258;2024-03-22T10:45:34;6.80;;;3.70;;
13799;SDS011;6971;50.028;9.258;2024-03-22T10:50:39;6.50;;;4.03;;
13799;SDS011;6971;50.028;9.258;2024-03-22T10:55:42;9.47;;;5.17;;
13799;SDS011;6971;50.028;9.258;2024-03-22T11:00:45;7.77;;;3.27;;
13799;SDS011;6971;50.028;9.258;2024-03-22T11:05:48;5.87;;;3.77;;
13799;SDS011;6971;50.028;9.258;2024-03-22T11:10:50;6.37;;;4.63;;
13799;SDS011;6971;50.028;9.258;2024-03-22T11:15:50;6.60;;;4.00;;
13799;SDS011;6971;50.028;9.258;2024-03-22T11:20:51;5.60;;;3.67;;
13799;SDS011;6971;50.028;9.258;2024-03-22T11:25:51;2.93;;;2.50;;
13799;SDS011;6971;50.028;9.258;2024-03-22T11:30:52;5.40;;;3.50;;
13799;SDS011;6971;50.028;9.258;2024-03-22T11:35:53;5.47;;;3.63;;
13799;SDS011;6971;50.028;9.258;2024-03-22T11:40:54;3.07;;;2.77;;
13799;SDS011;6971;50.028;9.258;2024-03-22T11:45:55;6.03;;;3.67;;
13799;SDS011;6971;50.028;9.258;2024-03-22T11:50:56;5.43;;;3.57;;
13799;SDS011;6971;50.028;9.258;2024-03-22T11:55:58;6.00;;;3.40;;
13799;SDS011;6971;50.028;9.258;2024-03-22T12:00:59;6.03;;;3.83;;
13799;SDS011;6971;50.028;9.258;2024-03-22T12:06:00;6.77;;;4.60;;
13799;SDS011;6971;50.028;9.258;2024-03-22T12:11:01;6.17;;;4.37;;
13799;SDS011;6971;50.028;9.258;2024-03-22T12:16:03;7.00;;;4.33;;
13799;SDS011;6971;50.028;9.258;2024-03-22T12:21:04;7.87;;;5.57;;
13799;SDS011;6971;50.028;9.258;2024-03-22T12:26:04;9.93;;;5.73;;
13799;SDS011;6971;50.028;9.258;2024-03-22T12:31:04;11.23;;;5.63;;
13799;SDS011;6971;50.028;9.258;2024-03-22T12:36:05;8.50;;;6.00;;
13799;SDS011;6971;50.028;9.258;2024-03-22T12:41:05;11.33;;;7.97;;
13799;SDS011;6971;50.028;9.258;2024-03-22T12:46:07;8.57;;;6.50;;
13799;SDS011;6971;50.028;9.258;2024-03-22T12:51:07;10.00;;;6.80;;
13799;SDS011;6971;50.028;9.258;2024-03-22T12:56:07;11.27;;;8.17;;
13799;SDS011;6971;50.028;9.258;2024-03-22T13:01:08;11.00;;;7.87;;
13799;SDS011;6971;50.028;9.258;2024-03-22T13:06:10;8.93;;;6.07;;
13799;SDS011;6971;50.028;9.258;2024-03-22T13:11:11;8.83;;;6.20;;
13799;SDS011;6971;50.028;9.258;2024-03-22T13:16:11;10.47;;;7.23;;
13799;SDS011;6971;50.028;9.258;2024-03-22T13:21:14;8.37;;;6.20;;
13799;SDS011;6971;50.028;9.258;2024-03-22T13:26:15;8.97;;;6.87;;
13799;SDS011;6971;50.028;9.258;2024-03-22T13:31:15;14.73;;;8.40;;
13799;SDS011;6971;50.028;9.258;2024-03-22T13:36:16;10.83;;;6.97;;
13799;SDS011;6971;50.028;9.258;2024-03-22T13:41:18;10.47;;;6.97;;
13799;SDS011;6971;50.028;9.258;2024-03-22T13:46:18;10.47;;;6.43;;
13799;SDS011;6971;50.028;9.258;2024-03-22T13:51:18;9.80;;;6.60;;
13799;SDS011;6971;50.028;9.258;2024-03-22T13:56:19;11.07;;;6.83;;
13799;SDS011;6971;50.028;9.258;2024-03-22T14:01:19;11.17;;;6.63;;
13799;SDS011;6971;50.028;9.258;2024-03-22T14:06:19;9.43;;;6.83;;
13799;SDS011;6971;50.028;9.258;2024-03-22T14:11:20;8.93;;;6.10;;
13799;SDS011;6971;50.028;9.258;2024-03-22T14:16:20;10.80;;;6.13;;
13799;SDS011;6971;50.028;9.258;2024-03-22T14:21:20;10.70;;;6.20;;
13799;SDS011;6971;50.028;9.258;2024-03-22T14:26:21;7.87;;;5.60;;
13799;SDS011;6971;50.028;9.258;2024-03-22T14:31:23;9.73;;;6.37;;
13799;SDS011;6971;50.028;9.258;2024-03-22T14:36:23;9.67;;;6.20;;
13799;SDS011;6971;50.028;9.258;2024-03-22T14:41:24;9.53;;;6.03;;
13799;SDS011;6971;50.028;9.258;2024-03-22T14:46:24;8.97;;;6.27;;
13799;SDS011;6971;50.028;9.258;2024-03-22T14:51:26;8.97;;;6.07;;
13799;SDS011;6971;50.028;9.258;2024-03-22T14:56:27;10.13;;;6.47;;
13799;SDS011;6971;50.028;9.258;2024-03-22T15:01:27;9.20;;;6.10;;
13799;SDS011;6971;50.028;9.258;2024-03-22T15:06:28;9.27;;;5.73;;
13799;SDS011;6971;50.028;9.258;2024-03-22T15:11:31;10.97;;;7.73;;
13799;SDS011;6971;50.028;9.258;2024-03-22T15:16:31;10.27;;;6.60;;
13799;SDS011;6971;50.028;9.258;2024-03-22T15:21:31;9.90;;;6.40;;
13799;SDS011;6971;50.028;9.258;2024-03-22T15:26:32;9.60;;;6.77;;
13799;SDS011;6971;50.028;9.258;2024-03-22T15:31:32;8.57;;;5.77;;
13799;SDS011;6971;50.028;9.258;2024-03-22T15:36:33;10.70;;;7.03;;
13799;SDS011;6971;50.028;9.258;2024-03-22T15:41:33;10.23;;;6.60;;
13799;SDS011;6971;50.028;9.258;2024-03-22T15:46:34;8.90;;;6.60;;
13799;SDS011;6971;50.028;9.258;2024-03-22T15:51:34;9.13;;;6.87;;
13799;SDS011;6971;50.028;9.258;2024-03-22T15:56:34;9.77;;;6.43;;
13799;SDS011;6971;50.028;9.258;2024-03-22T16:01:35;13.40;;;7.73;;
13799;SDS011;6971;50.028;9.258;2024-03-22T16:06:35;12.20;;;7.50;;
13799;SDS011;6971;50.028;9.258;2024-03-22T16:11:35;10.53;;;7.03;;
13799;SDS011;6971;50.028;9.258;2024-03-22T16:16:36;13.40;;;7.70;;
13799;SDS011;6971;50.028;9.258;2024-03-22T16:21:36;12.43;;;8.60;;
13799;SDS011;6971;50.028;9.258;2024-03-22T16:26:36;11.47;;;8.17;;
13799;SDS011;6971;50.028;9.258;2024-03-22T16:31:37;14.60;;;7.93;;
13799;SDS011;6971;50.028;9.258;2024-03-22T16:36:37;11.73;;;7.67;;
13799;SDS011;6971;50.028;9.258;2024-03-22T16:41:37;10.60;;;8.20;;
13799;SDS011;6971;50.028;9.258;2024-03-22T16:46:38;8.83;;;5.93;;
13799;SDS011;6971;50.028;9.258;2024-03-22T16:51:38;6.87;;;4.77;;
13799;SDS011;6971;50.028;9.258;2024-03-22T16:56:39;7.07;;;4.60;;
13799;SDS011;6971;50.028;9.258;2024-03-22T17:01:39;11.43;;;6.77;;
13799;SDS011;6971;50.028;9.258;2024-03-22T17:06:39;15.77;;;10.53;;
13799;SDS011;6971;50.028;9.258;2024-03-22T17:11:40;8.47;;;5.97;;
13799;SDS011;6971;50.028;9.258;2024-03-22T17:16:40;8.30;;;6.10;;
13799;SDS011;6971;50.028;9.258;2024-03-22T17:21:42;10.20;;;6.07;;
13799;SDS011;6971;50.028;9.258;2024-03-22T17:26:43;7.70;;;5.33;;
13799;SDS011;6971;50.028;9.258;2024-03-22T17:31:44;8.53;;;6.47;;
13799;SDS011;6971;50.028;9.258;2024-03-22T17:36:44;11.37;;;5.87;;
13799;SDS011;6971;50.028;9.258;2024-03-22T17:41:46;11.80;;;5.43;;
13799;SDS011;6971;50.028;9.258;2024-03-22T17:46:46;9.27;;;5.73;;
13799;SDS011;6971;50.028;9.258;2024-03-22T17:51:46;10.37;;;5.87;;
13799;SDS011;6971;50.028;9.258;2024-03-22T17:56:47;8.53;;;4.83;;
13799;SDS011;6971;50.028;9.258;2024-03-22T18:01:47;8.43;;;6.13;;
13799;SDS011;6971;50.028;9.258;2024-03-22T18:06:48;8.07;;;5.83;;
13799;SDS011;6971;50.028;9.258;2024-03-22T18:11:48;6.77;;;5.07;;
13799;SDS011;6971;50.028;9.258;2024-03-22T18:16:48;10.90;;;6.30;;
13799;SDS011;6971;50.028;9.258;2024-03-22T18:21:50;10.43;;;5.83;;
13799;SDS011;6971;50.028;9.258;2024-03-22T18:26:53;9.50;;;5.47;;
13799;SDS011;6971;50.028;9.258;2024-03-22T18:31:54;11.83;;;6.97;;
13799;SDS011;6971;50.028;9.258;2024-03-22T18:36:54;11.87;;;7.03;;
13799;SDS011;6971;50.028;9.258;2024-03-22T18:41:55;11.47;;;7.10;;
13799;SDS011;6971;50.028;9.258;2024-03-22T18:46:55;13.77;;;6.90;;
13799;SDS011;6971;50.028;9.258;2024-03-22T18:51:55;12.87;;;7.50;;
13799;SDS011;6971;50.028;9.258;2024-03-22T18:56:56;9.80;;;6.60;;
13799;SDS011;6971;50.028;9.258;2024-03-22T19:01:56;12.13;;;7.30;;
13799;SDS011;6971;50.028;9.258;2024-03-22T19:06:57;11.50;;;7.23;;
13799;SDS011;6971;50.028;9.258;2024-03-22T19:11:57;11.00;;;7.30;;
13799;SDS011;6971;50.028;9.258;2024-03-22T19:16:58;14.03;;;7.53;;
13799;SDS011;6971;50.028;9.258;2024-03-22T19:21:59;11.40;;;7.30;;
13799;SDS011;6971;50.028;9.258;2024-03-22T19:26:59;11.57;;;7.03;;
13799;SDS011;6971;50.028;9.258;2024-03-22T19:31:59;14.43;;;8.20;;
13799;SDS011;6971;50.028;9.258;2024-03-22T19:37:00;14.17;;;8.67;;
13799;SDS011;6971;50.028;9.258;2024-03-22T19:42:00;13.40;;;8.60;;
13799;SDS011;6971;50.028;9.258;2024-03-22T19:47:00;14.07;;;8.20;;
13799;SDS011;6971;50.028;9.258;2024-03-22T19:52:01;14.30;;;8.03;;
13799;SDS011;6971;50.028;9.258;2024-03-22T19:57:02;11.10;;;7.50;;
13799;SDS011;6971;50.028;9.258;2024-03-22T20:02:03;12.13;;;8.03;;
13799;SDS011;6971;50.028;9.258;2024-03-22T20:07:04;12.87;;;8.50;;
13799;SDS011;6971;50.028;9.258;2024-03-22T20:12:06;10.70;;;7.30;;
13799;SDS011;6971;50.028;9.258;2024-03-22T20:17:07;13.53;;;8.03;;
13799;SDS011;6971;50.028;9.258;2024-03-22T20:22:07;14.27;;;8.40;;
13799;SDS011;6971;50.028;9.258;2024-03-22T20:27:08;12.37;;;8.07;;
13799;SDS011;6971;50.028;9.258;2024-03-22T20:32:08;14.90;;;9.27;;
13799;SDS011;6971;50.028;9.258;2024-03-22T20:37:09;13.87;;;9.20;;
